createdAt,value
2023-03-23T15:58:53.376Z,99806.59
2023-03-23T16:01:28.599Z,99812.53
2023-03-23T16:04:20.656Z,99810.50
2023-03-23T16:06:48.772Z,99824.38
2023-03-23T16:09:21.297Z,99821.66
2023-03-23T16:11:48.500Z,99820.44
2023-03-23T16:14:15.731Z,99827.09
2023-03-23T16:16:51.051Z,99834.09
2023-03-23T16:19:24.362Z,99834.84
2023-03-23T16:21:51.649Z,99842.41
2023-03-23T16:24:19.064Z,99846.16
2023-03-23T16:26:46.760Z,99858.72
2023-03-23T16:29:33.881Z,99866.38
2023-03-23T16:32:04.540Z,99870.66
2023-03-23T16:34:33.718Z,99874.56
2023-03-23T16:37:01.354Z,99881.94
2023-03-23T16:39:28.733Z,99884.31
2023-03-23T16:41:56.077Z,99882.09
2023-03-23T16:44:23.334Z,99879.28
2023-03-23T16:46:50.565Z,99880.25
2023-03-23T16:49:17.658Z,99899.47
2023-03-23T16:51:44.722Z,99900.84
2023-03-23T16:54:11.838Z,99907.94
2023-03-23T16:56:39.439Z,99926.00
2023-03-23T16:59:09.877Z,99931.81
2023-03-23T17:01:37.068Z,99949.97
2023-03-23T17:04:07.298Z,99940.06
2023-03-23T17:06:34.555Z,99949.34
2023-03-23T17:09:01.600Z,99945.59
2023-03-23T17:11:28.668Z,99955.41
2023-03-23T17:13:55.744Z,99948.91
2023-03-23T17:16:23.336Z,99935.28
2023-03-23T17:18:50.595Z,99951.94
2023-03-23T17:21:20.693Z,99963.91
2023-03-23T17:23:47.790Z,99952.28
2023-03-23T17:26:14.880Z,99947.50
2023-03-23T17:28:42.015Z,99940.88
2023-03-23T17:31:09.184Z,99940.63
2023-03-23T17:33:36.260Z,99955.09
2023-03-23T17:36:03.501Z,99952.06
2023-03-23T17:38:30.854Z,99965.72
2023-03-23T17:41:00.256Z,99971.34
2023-03-23T17:43:33.725Z,99960.56
2023-03-23T17:46:00.805Z,99965.78
2023-03-23T17:48:27.915Z,99990.41
2023-03-23T17:50:59.806Z,99993.63
2023-03-23T17:53:28.156Z,99992.28
2023-03-23T17:55:56.984Z,99977.25
2023-03-23T17:58:28.084Z,99971.97
2023-03-23T18:00:56.672Z,99960.97
2023-03-23T18:03:25.803Z,99964.06
2023-03-23T18:06:00.658Z,99959.72
2023-03-23T18:08:28.712Z,99961.16
2023-03-23T18:10:57.776Z,99959.81
2023-03-23T18:13:27.507Z,99957.81
2023-03-23T18:15:56.698Z,99962.59
2023-03-23T18:18:26.071Z,99954.06
2023-03-23T18:21:08.352Z,99969.19
2023-03-23T18:23:45.977Z,99960.13
2023-03-23T18:26:17.234Z,99972.19
2023-03-23T18:28:44.328Z,99980.94
2023-03-23T18:31:15.820Z,99989.13
2023-03-23T18:33:46.806Z,99995.34
2023-03-23T18:36:23.905Z,100004.75
2023-03-23T18:38:51.553Z,100006.56
2023-03-23T18:41:19.296Z,100020.00
2023-03-23T18:43:46.499Z,100019.16
2023-03-23T18:46:13.842Z,100015.41
2023-03-23T18:48:41.114Z,100021.75
2023-03-23T18:51:09.041Z,100026.16
2023-03-23T18:53:36.383Z,100033.09
2023-03-23T18:56:15.747Z,100026.19
2023-03-23T18:58:45.012Z,100019.59
2023-03-23T19:01:16.615Z,100027.69
2023-03-23T19:03:45.337Z,100015.19
2023-03-23T19:06:23.891Z,100010.38
2023-03-23T19:08:52.286Z,100008.56
2023-03-23T19:11:20.974Z,100012.41
2023-03-23T19:14:00.395Z,100016.69
2023-03-23T19:16:38.034Z,100001.66
2023-03-23T19:19:08.177Z,100009.38
2023-03-23T19:21:36.131Z,100016.97
2023-03-23T19:24:07.204Z,100011.41
2023-03-23T19:27:08.681Z,100016.69
2023-03-23T19:29:36.459Z,100010.25
2023-03-23T19:32:06.352Z,100016.63
2023-03-23T19:34:33.681Z,100016.00
2023-03-23T19:37:05.274Z,100017.31
2023-03-23T19:39:34.526Z,100013.69
2023-03-23T19:42:04.810Z,100013.53
2023-03-23T19:44:33.353Z,100015.03
2023-03-23T19:47:01.144Z,100015.84
2023-03-23T19:49:28.461Z,100018.84
2023-03-23T19:52:07.221Z,100009.09
2023-03-23T19:54:38.709Z,100007.44
2023-03-23T19:57:06.722Z,100013.34
2023-03-23T19:59:34.099Z,100009.75
2023-03-23T20:02:01.369Z,100009.91
2023-03-23T20:04:28.847Z,100012.69
2023-03-23T20:06:57.167Z,100017.78
2023-03-23T20:09:25.364Z,100019.94
2023-03-23T20:11:53.603Z,100019.91
2023-03-23T20:14:21.128Z,100025.53
2023-03-23T20:16:48.740Z,100026.00
2023-03-23T20:19:16.468Z,100024.72
2023-03-23T20:21:43.646Z,100017.31
2023-03-23T20:24:11.218Z,100013.44
2023-03-23T20:26:43.492Z,100025.06
2023-03-23T20:29:10.892Z,100023.69
2023-03-23T20:31:41.607Z,100027.00
2023-03-23T20:34:14.045Z,100022.53
2023-03-23T20:36:45.775Z,100018.56
2023-03-23T20:39:21.517Z,100016.69
2023-03-23T20:41:54.538Z,100015.00
2023-03-23T20:44:25.171Z,100011.97
2023-03-23T20:46:53.810Z,100018.59
2023-03-23T20:49:21.980Z,100026.50
2023-03-23T20:51:50.606Z,100022.50
2023-03-23T20:54:19.808Z,100015.13
2023-03-23T20:56:47.893Z,100021.88
2023-03-23T20:59:16.088Z,100019.06
2023-03-23T21:01:44.711Z,100020.06
2023-03-23T21:04:18.709Z,100021.59
2023-03-23T21:06:48.990Z,100019.53
2023-03-23T21:09:17.509Z,100024.97
2023-03-23T21:11:46.469Z,100038.63
2023-03-23T21:14:15.023Z,100033.03
2023-03-23T21:16:43.151Z,100041.25
2023-03-23T21:19:11.638Z,100027.75
2023-03-23T21:21:42.333Z,100016.41
2023-03-23T21:24:31.352Z,100011.03
2023-03-23T21:27:02.979Z,100005.47
2023-03-23T21:29:30.766Z,100007.22
2023-03-23T21:34:28.298Z,99998.31
2023-03-23T21:36:55.470Z,99989.03
2023-03-23T21:39:22.838Z,99989.81
2023-03-23T21:41:50.069Z,99990.16
2023-03-23T21:44:18.101Z,99974.41
2023-03-23T21:46:45.289Z,99967.34
2023-03-23T21:49:14.232Z,99965.78
2023-03-23T21:51:43.288Z,99969.78
2023-03-23T21:54:11.812Z,99974.00
2023-03-23T21:56:39.273Z,99971.13
2023-03-23T21:59:07.705Z,99974.53
2023-03-23T22:01:36.983Z,99971.50
2023-03-23T22:04:07.546Z,99974.97
2023-03-23T22:06:38.015Z,99969.09
2023-03-23T22:09:05.690Z,99961.41
2023-03-23T22:11:33.581Z,99961.47
2023-03-23T22:14:01.745Z,99960.47
2023-03-23T22:16:29.061Z,99949.56
2023-03-23T22:19:00.035Z,99955.03
2023-03-23T22:21:28.425Z,99949.41
2023-03-23T22:24:00.364Z,99949.66
2023-03-23T22:26:28.973Z,99959.59
2023-03-23T22:28:57.641Z,99958.22
2023-03-23T22:31:33.697Z,99953.66
2023-03-23T22:34:04.759Z,99958.25
2023-03-23T22:36:35.561Z,99962.31
2023-03-23T22:39:04.007Z,99949.91
2023-03-23T22:41:40.238Z,99956.69
2023-03-23T22:44:18.779Z,99953.84
2023-03-23T22:46:46.579Z,99943.88
2023-03-23T22:49:15.974Z,99949.34
2023-03-23T22:51:43.226Z,99938.53
2023-03-23T22:54:11.481Z,99939.03
2023-03-23T22:56:41.508Z,99931.69
2023-03-23T22:59:09.464Z,99931.03
2023-03-23T23:01:36.787Z,99933.91
2023-03-23T23:04:04.948Z,99915.63
2023-03-23T23:06:32.259Z,99925.09
2023-03-23T23:08:59.402Z,99921.19
2023-03-23T23:11:27.355Z,99914.59
2023-03-23T23:13:54.525Z,99909.78
2023-03-23T23:16:24.235Z,99917.84
2023-03-23T23:18:52.444Z,99910.72
2023-03-23T23:21:24.630Z,99904.97
2023-03-23T23:23:52.412Z,99903.00
2023-03-23T23:26:20.665Z,99896.94
2023-03-23T23:28:48.668Z,99896.91
2023-03-23T23:31:32.280Z,99893.22
2023-03-23T23:34:02.145Z,99900.13
2023-03-23T23:36:32.200Z,99893.72
2023-03-23T23:39:06.489Z,99891.81
2023-03-23T23:41:35.324Z,99890.69
2023-03-23T23:44:06.249Z,99890.50
2023-03-23T23:46:33.692Z,99894.09
2023-03-23T23:49:01.219Z,99893.63
2023-03-23T23:51:29.897Z,99883.06
2023-03-23T23:54:01.417Z,99880.59
2023-03-23T23:56:31.256Z,99876.06
2023-03-23T23:58:59.117Z,99883.34
